createdAt,value
2023-03-29T04:00:48.426Z,4.65
2023-03-29T04:05:10.159Z,4.30
2023-03-29T04:09:14.613Z,4.30
2023-03-29T04:13:20.672Z,4.20
2023-03-29T04:18:01.973Z,4.68
2023-03-29T04:22:09.416Z,4.40
2023-03-29T04:26:13.624Z,4.35
2023-03-29T04:30:23.532Z,4.45
2023-03-29T04:34:51.204Z,4.07
2023-03-29T04:38:53.749Z,4.13
2023-03-29T04:42:56.292Z,4.47
2023-03-29T04:46:58.807Z,4.53
2023-03-29T04:51:08.734Z,4.35
2023-03-29T04:55:12.313Z,4.85
2023-03-29T04:59:37.970Z,4.88
2023-03-29T05:03:50.848Z,4.50
2023-03-29T05:08:01.530Z,4.72
2023-03-29T05:12:12.927Z,4.87
2023-03-29T05:16:34.622Z,5.43
2023-03-29T05:20:38.348Z,4.90
2023-03-29T05:24:43.223Z,4.88
2023-03-29T05:28:50.849Z,4.93
2023-03-29T05:32:53.938Z,4.80
2023-03-29T05:37:01.434Z,5.28
2023-03-29T05:41:11.641Z,4.85
2023-03-29T05:45:17.356Z,4.80
2023-03-29T05:49:21.447Z,5.57
2023-03-29T05:53:45.219Z,4.70
2023-03-29T05:57:49.224Z,5.53
2023-03-29T06:01:54.122Z,5.30
2023-03-29T06:05:59.090Z,5.00
2023-03-29T06:10:02.763Z,5.30
2023-03-29T06:14:06.701Z,5.07
2023-03-29T06:18:11.678Z,5.40
2023-03-29T06:22:15.012Z,4.90
2023-03-29T06:30:24.878Z,4.75
2023-03-29T06:34:29.702Z,4.45
2023-03-29T06:38:45.859Z,4.88
2023-03-29T06:42:57.836Z,4.32
2023-03-29T06:47:20.769Z,4.57
2023-03-29T06:51:23.609Z,4.38
2023-03-29T06:55:28.682Z,5.63
2023-03-29T06:59:33.828Z,4.20
2023-03-29T07:03:49.374Z,3.95
2023-03-29T07:07:56.526Z,4.20
2023-03-29T07:12:11.091Z,4.05
2023-03-29T07:16:14.606Z,4.60
2023-03-29T07:20:27.570Z,4.22
2023-03-29T07:24:40.047Z,4.03
2023-03-29T07:28:43.124Z,4.73
2023-03-29T07:32:47.302Z,4.15
2023-03-29T07:37:01.522Z,4.13
2023-03-29T07:41:05.778Z,4.07
2023-03-29T07:45:26.756Z,4.00
2023-03-29T07:49:36.433Z,4.40
2023-03-29T07:53:40.440Z,3.90
2023-03-29T07:57:56.529Z,3.63
2023-03-29T08:01:59.311Z,4.00
2023-03-29T08:06:07.918Z,3.58
2023-03-29T08:10:15.253Z,3.63
2023-03-29T08:14:31.548Z,3.85
2023-03-29T08:18:39.743Z,3.60
2023-03-29T08:22:43.101Z,3.90
2023-03-29T08:27:01.433Z,3.35
2023-03-29T08:31:04.204Z,3.50
2023-03-29T08:39:19.641Z,3.70
2023-03-29T08:43:57.988Z,3.55
2023-03-29T08:48:28.369Z,3.78
2023-03-29T08:52:35.506Z,3.53
2023-03-29T08:56:51.291Z,2.97
2023-03-29T09:01:08.558Z,3.38
2023-03-29T09:05:27.910Z,3.10
2023-03-29T09:09:41.657Z,3.10
2023-03-29T09:14:04.964Z,3.90
2023-03-29T09:18:16.689Z,3.20
2023-03-29T09:22:25.007Z,3.20
2023-03-29T09:26:36.019Z,2.95
2023-03-29T09:31:07.837Z,3.28
2023-03-29T09:35:18.433Z,2.78
2023-03-29T09:39:23.388Z,2.85
2023-03-29T09:43:36.124Z,2.95
2023-03-29T09:47:45.922Z,2.97
2023-03-29T09:51:51.269Z,2.95
2023-03-29T09:55:56.014Z,2.92
2023-03-29T10:00:17.667Z,3.00
2023-03-29T10:04:22.161Z,3.30
2023-03-29T10:08:39.665Z,2.85
2023-03-29T10:12:50.451Z,3.35
2023-03-29T10:16:57.240Z,2.92
2023-03-29T10:21:02.591Z,2.67
2023-03-29T10:25:14.437Z,3.00
2023-03-29T10:29:17.336Z,2.60
2023-03-29T10:33:23.971Z,3.08
2023-03-29T10:37:29.478Z,2.35
2023-03-29T10:41:35.029Z,3.00
2023-03-29T10:45:39.993Z,2.70
2023-03-29T10:49:44.984Z,2.70
2023-03-29T10:53:48.094Z,2.58
2023-03-29T10:58:03.868Z,2.90
2023-03-29T11:02:38.434Z,2.60
2023-03-29T11:06:48.227Z,4.72
2023-03-29T11:11:01.306Z,2.60
2023-03-29T11:15:34.208Z,3.03
2023-03-29T11:19:49.260Z,2.58
2023-03-29T11:24:06.495Z,2.75
2023-03-29T11:28:18.351Z,2.60
2023-03-29T11:32:29.372Z,2.50
2023-03-29T11:36:38.870Z,2.85
2023-03-29T11:40:51.439Z,2.75
2023-03-29T11:44:57.875Z,2.80
2023-03-29T11:49:05.955Z,2.67
2023-03-29T11:53:12.578Z,2.80
2023-03-29T11:57:22.085Z,2.55
2023-03-29T12:01:34.214Z,2.78
2023-03-29T12:05:43.779Z,2.90
2023-03-29T12:09:51.439Z,2.92
2023-03-29T12:13:58.468Z,2.58
2023-03-29T12:18:15.004Z,2.72
2023-03-29T12:22:18.966Z,2.58
2023-03-29T12:26:36.532Z,3.03
2023-03-29T12:30:47.916Z,3.30
2023-03-29T12:35:06.989Z,2.80
2023-03-29T12:39:43.179Z,2.97
2023-03-29T12:44:05.827Z,2.97
2023-03-29T12:48:20.712Z,3.00
2023-03-29T12:52:28.210Z,3.15
2023-03-29T12:56:41.848Z,3.33
2023-03-29T13:00:46.269Z,3.50
2023-03-29T13:04:54.336Z,3.63
2023-03-29T13:09:02.820Z,3.40
2023-03-29T13:13:19.860Z,3.70
2023-03-29T13:17:38.122Z,4.18
2023-03-29T13:21:50.237Z,3.85
2023-03-29T13:26:11.283Z,4.07
2023-03-29T13:30:24.248Z,4.35
2023-03-29T13:34:37.666Z,3.88
2023-03-29T13:38:49.226Z,4.13
2023-03-29T13:42:59.593Z,5.35
2023-03-29T13:47:06.729Z,4.47
2023-03-29T13:51:22.577Z,6.03
2023-03-29T13:55:28.083Z,4.00
2023-03-29T13:59:49.115Z,3.75
2023-03-29T14:03:53.534Z,3.78
2023-03-29T14:07:56.439Z,3.70
2023-03-29T14:12:00.259Z,4.15
2023-03-29T14:16:07.588Z,3.60
2023-03-29T14:20:16.625Z,3.95
2023-03-29T14:24:22.355Z,3.33
2023-03-29T14:28:27.022Z,3.88
2023-03-29T14:32:31.382Z,3.28
2023-03-29T14:36:35.381Z,3.53
2023-03-29T14:40:38.012Z,3.65
2023-03-29T14:44:40.983Z,3.70
2023-03-29T14:48:44.725Z,3.28
2023-03-29T14:52:52.386Z,3.80
2023-03-29T14:56:55.464Z,3.95
2023-03-29T15:00:58.320Z,5.03
2023-03-29T15:05:04.671Z,4.03
2023-03-29T15:09:12.939Z,3.50
2023-03-29T15:13:20.916Z,4.13
2023-03-29T15:17:47.633Z,3.70
2023-03-29T15:21:53.196Z,3.58
2023-03-29T15:25:59.264Z,3.55
2023-03-29T15:30:03.557Z,3.35
2023-03-29T15:34:09.397Z,3.47
2023-03-29T15:38:13.988Z,3.40
2023-03-29T15:42:17.881Z,3.45
2023-03-29T15:46:20.410Z,3.65
2023-03-29T15:50:23.410Z,3.47
2023-03-29T15:54:26.321Z,3.60
2023-03-29T15:58:32.127Z,4.00
2023-03-29T16:02:35.426Z,3.35
2023-03-29T16:10:41.420Z,3.53
2023-03-29T16:14:45.333Z,3.55
2023-03-29T16:18:48.012Z,3.45
2023-03-29T16:22:51.296Z,3.03
2023-03-29T16:26:56.008Z,3.22
2023-03-29T16:31:00.306Z,3.38
2023-03-29T16:35:04.530Z,3.22
2023-03-29T16:39:07.264Z,3.40
2023-03-29T16:43:14.905Z,3.00
2023-03-29T16:47:18.696Z,3.28
2023-03-29T16:51:21.311Z,3.60
2023-03-29T16:55:23.882Z,3.60
2023-03-29T16:59:27.034Z,3.77
2023-03-29T17:03:31.065Z,3.90
2023-03-29T17:07:33.632Z,3.53
2023-03-29T17:11:36.475Z,3.40
2023-03-29T17:15:39.910Z,3.70
2023-03-29T17:19:43.966Z,3.60
2023-03-29T17:23:46.459Z,3.40
2023-03-29T17:27:49.669Z,3.30
2023-03-29T17:31:52.219Z,3.10
2023-03-29T17:35:56.437Z,2.67
2023-03-29T17:39:59.006Z,2.35
2023-03-29T17:44:02.100Z,2.33
2023-03-29T17:48:06.540Z,2.13
2023-03-29T17:52:10.739Z,2.63
2023-03-29T17:56:13.299Z,2.50
2023-03-29T18:00:17.131Z,2.07
2023-03-29T18:04:19.645Z,2.30
2023-03-29T18:08:23.494Z,3.13
2023-03-29T18:12:26.735Z,3.03
2023-03-29T18:16:29.929Z,3.28
2023-03-29T18:20:32.682Z,3.15
2023-03-29T18:24:36.623Z,3.70
2023-03-29T18:28:39.190Z,3.13
2023-03-29T18:32:41.751Z,4.20
2023-03-29T18:36:44.374Z,3.53
2023-03-29T18:40:48.815Z,3.17
2023-03-29T18:44:52.158Z,3.38
2023-03-29T18:48:54.686Z,3.83
2023-03-29T18:52:57.172Z,3.80
2023-03-29T18:57:01.337Z,3.20
2023-03-29T19:01:05.893Z,3.13
2023-03-29T19:05:09.232Z,3.13
2023-03-29T19:09:11.788Z,2.75
2023-03-29T19:13:15.644Z,3.30
2023-03-29T19:17:18.273Z,3.10
2023-03-29T19:21:21.942Z,3.10
2023-03-29T19:25:24.514Z,3.10
2023-03-29T19:29:28.356Z,3.20
2023-03-29T19:33:31.074Z,2.90
2023-03-29T19:37:33.617Z,2.47
2023-03-29T19:41:37.842Z,2.83
2023-03-29T19:45:42.448Z,2.70
2023-03-29T19:49:46.131Z,2.65
2023-03-29T19:53:48.649Z,2.90
2023-03-29T19:57:51.225Z,3.47
2023-03-29T20:01:56.811Z,3.40
2023-03-29T20:05:59.572Z,3.80
2023-03-29T20:10:02.261Z,3.50
2023-03-29T20:14:05.556Z,3.40
2023-03-29T20:18:09.464Z,3.40
2023-03-29T20:22:12.817Z,3.42
2023-03-29T20:26:15.436Z,3.22
2023-03-29T20:30:18.230Z,2.80
2023-03-29T20:34:23.403Z,3.10
2023-03-29T20:38:25.938Z,3.22
2023-03-29T20:42:28.626Z,3.17
2023-03-29T20:46:34.140Z,3.23
2023-03-29T20:50:38.966Z,3.22
2023-03-29T20:54:41.833Z,2.92
2023-03-29T20:58:44.371Z,3.00
